METAR Data
IDs: Format: Raw Decoded Include TAF

Data at: 0651 UTC 07 Dec 2022

KBDN 070635Z AUTO 00000KT 10SM CLR M06/M08 A3014 RMK AO2
KBDN 070615Z AUTO 17003KT 10SM CLR M06/M07 A3013 RMK AO2
KBDN 070555Z AUTO 00000KT 10SM CLR M09/M10 A3013 RMK AO2
KBDN 070535Z AUTO 14005KT 10SM CLR M09/M10 A3012 RMK AO2
KBDN 070515Z AUTO 00000KT 10SM CLR M08/M08 A3012 RMK AO2
KBDN 070455Z AUTO 16003KT 10SM CLR M06/M07 A3012 RMK AO2
KBDN 070435Z AUTO 00000KT M07/M08 A3012 RMK AO2
KBDN 070415Z AUTO 00000KT 10SM CLR M06/M07 A3011 RMK AO2
KBDN 070355Z AUTO 00000KT 10SM CLR M06/M07 A3011 RMK AO2
KBDN 070335Z AUTO 00000KT 10SM CLR M06/M07 A3010 RMK AO2
KBDN 070315Z AUTO 00000KT 10SM CLR M05/M06 A3009 RMK AO2
KBDN 070255Z AUTO 00000KT 10SM CLR M03/M05 A3009 RMK AO2
KBDN 070235Z AUTO 00000KT 10SM CLR M02/M04 A3009 RMK AO2
KBDN 070215Z AUTO 13004KT 10SM CLR M03/M05 A3008 RMK AO2
KBDN 070155Z AUTO 14004KT 10SM CLR M03/M05 A3008 RMK AO2
KBDN 070135Z AUTO 14005KT 10SM CLR M02/M05 A3008 RMK AO2
KBDN 070110Z AUTO 15003KT 10SM CLR M01/M04 A3008 RMK AO2
KBDN 070055Z AUTO 00000KT 10SM CLR M00/M04 A3007 RMK AO2
KBDN 070035Z AUTO 12003KT 10SM CLR 01/M04 A3007 RMK AO2
KBDN 070010Z AUTO 13004KT 10SM CLR 02/M04 A3006 RMK AO2
KBDN 062355Z AUTO 18004KT 10SM CLR 04/M03 A3006 RMK AO2
KBDN 062335Z AUTO 20005KT 10SM CLR 04/M03 A3006 RMK AO2
KBDN 062315Z AUTO 21004KT 10SM CLR 05/M03 A3006 RMK AO2
KBDN 062255Z AUTO 22005KT 10SM CLR 05/M03 A3005 RMK AO2
KBDN 062235Z AUTO 22006KT 10SM CLR 04/M03 A3006 RMK AO2
KBDN 062215Z AUTO 21008KT 10SM CLR 04/M03 A3005 RMK AO2
KBDN 062155Z AUTO 22007KT 10SM CLR 04/M03 A3006 RMK AO2
KBDN 062135Z AUTO 22008KT 10SM CLR 04/M03 A3006 RMK AO2
KBDN 062115Z AUTO 21010KT 10SM CLR 04/M03 A3006 RMK AO2
KBDN 062055Z AUTO 21008G13KT 10SM CLR 03/M03 A3006 RMK AO2
KBDN 062035Z AUTO 21009G15KT 8SM CLR 03/M03 A3007 RMK AO2
KBDN 062015Z AUTO 22010KT 8SM CLR 02/M03 A3007 RMK AO2
KBDN 061955Z AUTO 21010KT 8SM CLR 02/M03 A3007 RMK AO2
KBDN 061935Z AUTO 20012KT 10SM CLR 02/M03 A3007 RMK AO2
KBDN 061915Z AUTO 21010KT 10SM CLR 02/M03 A3007 RMK AO2
KBDN 061855Z AUTO 20011KT 10SM CLR 02/M03 A3007 RMK AO2
KBDN 061835Z AUTO 21012G17KT 10SM CLR 02/M03 A3007 RMK AO2
KBDN 061815Z AUTO 20013KT 10SM CLR 02/M03 A3007 RMK AO2
KBDN 061755Z AUTO 19009KT 10SM CLR 01/M03 A3007 RMK AO2
KBDN 061735Z AUTO 18008KT 10SM CLR M00/M03 A3007 RMK AO2
KBDN 061715Z AUTO 14005KT 10SM CLR M03/M06 A3007 RMK AO2
KBDN 061655Z AUTO 13006KT 10SM CLR M04/M07 A3007 RMK AO2
KBDN 061635Z AUTO 13006KT 10SM CLR M04/M06 A3006 RMK AO2
KBDN 061520Z AUTO 13004KT 9SM CLR M06/M07 A3004 RMK AO2
KBDN 061515Z AUTO 13004KT 9SM CLR M06/M07 A3004 RMK AO2
KBDN 061450Z AUTO 16003KT 10SM CLR M05/M06 A3003 RMK AO2
KBDN 061435Z AUTO 17005KT 10SM CLR M05/M06 A3003 RMK AO2
KBDN 061415Z AUTO 19005KT 10SM CLR M04/M05 A3003 RMK AO2
KBDN 061355Z AUTO 21005KT 10SM CLR M04/M06 A3002 RMK AO2
KBDN 061335Z AUTO 21006KT 10SM CLR M03/M05 A3002 RMK AO2
KBDN 061315Z AUTO 22009KT 10SM CLR M02/M04 A3002 RMK AO2
KBDN 061255Z AUTO 22008KT 10SM CLR M03/M05 A3002 RMK AO2
KBDN 061235Z AUTO 23006KT 10SM SCT031 M02/M04 A3002 RMK AO2
KBDN 061215Z AUTO 21009G15KT 10SM SCT031 M02/M04 A3002 RMK AO2
KBDN 061155Z AUTO 22008KT 10SM CLR M04/M05 A3001 RMK AO2
KBDN 061135Z AUTO 21008KT 10SM CLR M04/M05 A3001 RMK AO2
KBDN 061110Z AUTO 22005KT 10SM CLR M05/M06 A3002 RMK AO2
KBDN 061055Z AUTO 21006KT 10SM CLR M05/M06 A3001 RMK AO2
KBDN 061035Z AUTO 22007KT 10SM CLR M04/M05 A3001 RMK AO2
KBDN 061015Z AUTO 20007KT 10SM CLR M04/M04 A3001 RMK AO2
KBDN 060955Z AUTO 00000KT 10SM CLR M04/M05 A3001 RMK AO2
KBDN 060930Z AUTO 21003KT 10SM CLR M03/M04 A3000 RMK AO2
KBDN 060915Z AUTO 21005KT 10SM CLR M03/M04 A3000 RMK AO2
KBDN 060855Z AUTO 21003KT 8SM CLR M03/M04 A3000 RMK AO2
KBDN 060835Z AUTO 00000KT 7SM SCT036 M03/M04 A3000 RMK AO2
KBDN 060815Z AUTO 00000KT OVC039 M02/M03 A3001 RMK AO2
KBDN 060755Z AUTO 00000KT 9SM OVC041 M02/M03 A3001 RMK AO2
KBDN 060735Z AUTO 00000KT 9SM OVC042 M02/M03 A3001 RMK AO2
KBDN 060715Z AUTO 00000KT 7SM BKN044 M03/M04 A3000 RMK AO2
KBDN 060655Z AUTO 00000KT 1 1/4SM BR SCT045 M04/M05 A3000 RMK AO2 VIS 3/4V3
KBDN 060635Z AUTO 00000KT 10SM SCT045 M02/M03 A2999 RMK AO2
KBDN 060615Z AUTO 00000KT 10SM BKN045 M01/M02 A2999 RMK AO2
KBDN 060555Z AUTO 00000KT 9SM BKN045 M02/M03 A2998 RMK AO2
KBDN 060535Z AUTO 00000KT 3SM BR BKN046 M02/M03 A2997 RMK AO2
KBDN 060515Z AUTO 10003KT 9SM BKN046 M01/M02 A2997 RMK AO2
KBDN 060455Z AUTO 00000KT 10SM BKN047 M01/M02 A2997 RMK AO2
KBDN 060435Z AUTO 20003KT 10SM OVC048 00/M01 A2996 RMK AO2
KBDN 060415Z AUTO 00000KT 10SM OVC048 00/M01 A2996 RMK AO2
KBDN 060355Z AUTO 00000KT 10SM OVC048 M00/M01 A2996 RMK AO2
KBDN 060335Z AUTO 00000KT 10SM OVC048 M00/M01 A2995 RMK AO2
KBDN 060315Z AUTO 00000KT 10SM OVC049 M00/M02 A2995 RMK AO2
KBDN 060255Z AUTO 00000KT 10SM OVC048 00/M02 A2994 RMK AO2
KBDN 060235Z AUTO 18003KT 10SM OVC048 00/M02 A2994 RMK AO2
KBDN 060215Z AUTO 00000KT 10SM OVC048 00/M02 A2994 RMK AO2
KBDN 060155Z AUTO 00000KT 10SM OVC049 00/M02 A2994 RMK AO2
KBDN 060135Z AUTO 00000KT 10SM OVC049 01/M02 A2993 RMK AO2
KBDN 060115Z AUTO 00000KT 10SM OVC049 01/M01 A2993 RMK AO2
KBDN 060055Z AUTO 00000KT 10SM OVC048 02/M01 A2993 RMK AO2
KBDN 060035Z AUTO 00000KT 10SM OVC048 02/M01 A2993 RMK AO2
KBDN 060015Z AUTO 00000KT 10SM OVC045 03/M01 A2992 RMK AO2
KBDN 052355Z AUTO 00000KT 10SM OVC039 03/M02 A2992 RMK AO2
KBDN 052335Z AUTO 33004KT 10SM BKN034 04/M01 A2992 RMK AO2
KBDN 052315Z AUTO 00000KT 10SM FEW030 FEW035 04/M01 A2991 RMK AO2
KBDN 052255Z AUTO 00000KT 10SM CLR 03/M02 A2990 RMK AO2
KBDN 052235Z AUTO 01003KT 10SM CLR 03/M02 A2990 RMK AO2
KBDN 052210Z AUTO 00000KT 9SM CLR 06/M01 A2990 RMK AO2
KBDN 052155Z AUTO 00000KT 10SM CLR 05/M02 A2990 RMK AO2 P0002
KBDN 052135Z AUTO 00000KT 10SM CLR 05/M01 A2990 RMK AO2
KBDN 052115Z AUTO 00000KT 10SM CLR 04/M02 A2990 RMK AO2
KBDN 052055Z AUTO 08003KT 10SM CLR 03/M02 A2991 RMK AO2 P0003
KBDN 052035Z AUTO 05003KT 10SM CLR 03/M02 A2991 RMK AO2
KBDN 052015Z AUTO 00000KT 10SM CLR 03/M02 A2992 RMK AO2
KBDN 051955Z AUTO 00000KT 10SM CLR 02/M02 A2992 RMK AO2 P0002
KBDN 051935Z AUTO 00000KT 10SM CLR 02/M03 A2993 RMK AO2
KBDN 051915Z AUTO 00000KT 10SM CLR 00/M03 A2994 RMK AO2
KBDN 051855Z AUTO 00000KT 10SM CLR M00/M03 A2994 RMK AO2